createdAt,value
2022-09-01T00:00:18.559Z,97840.72
2022-09-01T00:02:47.034Z,97843.44
2022-09-01T00:05:15.214Z,97840.94
2022-09-01T00:07:43.032Z,97841.38
2022-09-01T00:10:11.295Z,97834.53
2022-09-01T00:12:39.840Z,97845.53
2022-09-01T00:15:11.106Z,97847.41
2022-09-01T00:17:39.218Z,97844.13
2022-09-01T00:20:08.331Z,97847.25
2022-09-01T00:22:36.323Z,97848.28
2022-09-01T00:25:06.009Z,97856.81
2022-09-01T00:27:33.888Z,97854.97
2022-09-01T00:30:01.848Z,97853.50
2022-09-01T00:32:30.716Z,97841.88
2022-09-01T00:34:58.537Z,97852.06
2022-09-01T00:37:26.386Z,97850.84
2022-09-01T00:39:54.236Z,97848.38
2022-09-01T00:42:22.130Z,97845.88
2022-09-01T00:44:49.935Z,97839.44
2022-09-01T00:47:19.226Z,97840.47
2022-09-01T00:49:51.217Z,97834.03
2022-09-01T00:52:32.424Z,97832.97
2022-09-01T00:55:29.952Z,97833.81
2022-09-01T00:58:03.448Z,97832.38
2022-09-01T01:00:34.322Z,97841.53
2022-09-01T01:03:02.266Z,97831.97
2022-09-01T01:05:36.607Z,97836.34
2022-09-01T01:08:06.582Z,97836.34
2022-09-01T01:10:42.024Z,97840.72
2022-09-01T01:13:17.174Z,97835.31
2022-09-01T01:15:45.432Z,97836.34
2022-09-01T01:18:16.946Z,97834.06
2022-09-01T01:21:28.892Z,97828.66
2022-09-01T01:24:23.166Z,97835.31
2022-09-01T01:26:53.226Z,97828.66
2022-09-01T01:29:21.974Z,97831.78
2022-09-01T01:31:53.967Z,97830.97
2022-09-01T01:34:23.456Z,97828.47
2022-09-01T01:36:51.975Z,97827.66
2022-09-01T01:39:27.678Z,97832.44
2022-09-01T01:41:57.927Z,97826.84
2022-09-01T01:44:31.099Z,97834.31
2022-09-01T01:47:04.477Z,97829.13
2022-09-01T01:49:34.748Z,97833.31
2022-09-01T01:52:04.719Z,97834.56
2022-09-01T01:54:37.518Z,97836.00
2022-09-01T01:57:05.593Z,97826.06
2022-09-01T01:59:33.868Z,97829.81
2022-09-01T02:02:08.705Z,97825.03
2022-09-01T02:04:37.050Z,97830.84
2022-09-01T02:07:13.100Z,97828.16
2022-09-01T02:09:46.047Z,97830.00
2022-09-01T02:12:19.669Z,97832.69
2022-09-01T02:14:48.592Z,97830.22
2022-09-01T02:17:17.327Z,97835.41
2022-09-01T02:19:47.394Z,97828.56
2022-09-01T02:22:15.368Z,97825.03
2022-09-01T02:24:49.225Z,97829.38
2022-09-01T02:27:21.982Z,97825.84
2022-09-01T02:29:55.491Z,97831.47
2022-09-01T02:32:24.112Z,97829.81
2022-09-01T02:34:53.939Z,97835.84
2022-09-01T02:37:25.314Z,97836.91
2022-09-01T02:39:53.948Z,97835.44
2022-09-01T02:42:27.581Z,97833.78
2022-09-01T02:44:57.446Z,97841.28
2022-09-01T02:47:29.760Z,97839.84
2022-09-01T02:50:01.093Z,97836.09
2022-09-01T02:52:37.611Z,97838.38
2022-09-01T02:55:06.870Z,97831.75
2022-09-01T02:57:35.236Z,97834.25
2022-09-01T03:00:20.787Z,97833.00
2022-09-01T03:02:53.014Z,97830.53
2022-09-01T03:05:27.079Z,97821.63
2022-09-01T03:08:01.689Z,97823.50
2022-09-01T03:10:35.531Z,97827.22
2022-09-01T03:13:08.901Z,97821.00
2022-09-01T03:15:38.209Z,97823.72
2022-09-01T03:18:08.149Z,97824.31
2022-09-01T03:20:39.537Z,97823.72
2022-09-01T03:23:08.640Z,97816.88
2022-09-01T03:25:37.582Z,97818.13
2022-09-01T03:28:06.702Z,97816.25
2022-09-01T03:30:40.154Z,97822.69
2022-09-01T03:33:08.417Z,97824.16
2022-09-01T03:35:37.184Z,97825.16
2022-09-01T03:38:05.709Z,97826.44
2022-09-01T03:40:37.035Z,97820.41
2022-09-01T03:43:12.946Z,97822.91
2022-09-01T03:45:44.844Z,97820.63
2022-09-01T03:48:16.865Z,97822.50
2022-09-01T03:50:46.380Z,97822.06
2022-09-01T03:53:22.812Z,97824.75
2022-09-01T03:55:50.763Z,97822.06
2022-09-01T03:58:20.187Z,97817.28
2022-09-01T04:00:55.461Z,97820.19
2022-09-01T04:03:29.081Z,97816.88
2022-09-01T04:06:02.508Z,97818.72
2022-09-01T04:08:32.578Z,97823.50
2022-09-01T04:11:11.373Z,97822.47
2022-09-01T04:13:41.969Z,97817.91
2022-09-01T04:16:43.511Z,97824.13
2022-09-01T04:19:25.188Z,97823.91
2022-09-01T04:22:05.434Z,97818.53
2022-09-01T04:24:45.519Z,97823.28
2022-09-01T04:27:15.212Z,97825.38
2022-09-01T04:29:46.538Z,97823.50
2022-09-01T04:32:15.934Z,97829.75
2022-09-01T04:34:49.848Z,97824.13
2022-09-01T04:37:22.094Z,97822.69
2022-09-01T04:40:03.721Z,97827.28
2022-09-01T04:42:33.135Z,97831.16
2022-09-01T04:45:09.935Z,97829.50
2022-09-01T04:47:42.169Z,97830.38
2022-09-01T04:50:17.600Z,97830.56
2022-09-01T04:53:07.322Z,97832.81
2022-09-01T04:55:49.768Z,97840.09
2022-09-01T04:58:20.580Z,97836.56
2022-09-01T05:00:52.248Z,97831.38
2022-09-01T05:03:22.377Z,97833.69
2022-09-01T05:06:03.940Z,97841.56
2022-09-01T05:08:35.210Z,97834.50
2022-09-01T05:11:08.055Z,97843.22
2022-09-01T05:13:43.534Z,97838.44
2022-09-01T05:16:15.947Z,97840.09
2022-09-01T05:18:49.071Z,97828.91
2022-09-01T05:21:24.824Z,97842.59
2022-09-01T05:23:54.401Z,97839.28
2022-09-01T05:26:34.682Z,97846.31
2022-09-01T05:29:10.802Z,97843.63
2022-09-01T05:31:42.457Z,97838.22
2022-09-01T05:34:11.041Z,97849.41
2022-09-01T05:36:46.351Z,97844.66
2022-09-01T05:39:14.852Z,97841.13
2022-09-01T05:41:43.249Z,97846.53
2022-09-01T05:44:14.169Z,97845.50
2022-09-01T05:46:44.590Z,97842.41
2022-09-01T05:49:18.573Z,97847.19
2022-09-01T05:51:51.887Z,97846.75
2022-09-01T05:54:27.479Z,97839.88
2022-09-01T05:57:12.634Z,97848.19
2022-09-01T05:59:53.687Z,97844.25
2022-09-01T06:02:27.313Z,97842.59
2022-09-01T06:04:57.489Z,97841.31
2022-09-01T06:07:30.931Z,97842.56
2022-09-01T06:10:01.132Z,97843.38
2022-09-01T06:12:29.068Z,97840.06
2022-09-01T06:14:57.999Z,97846.72
2022-09-01T06:17:29.010Z,97848.59
2022-09-01T06:20:02.031Z,97842.78
2022-09-01T06:22:34.652Z,97837.16
2022-09-01T06:25:06.702Z,97842.94
2022-09-01T06:27:44.470Z,97837.16
2022-09-01T06:30:23.189Z,97845.47
2022-09-01T06:32:57.330Z,97848.59
2022-09-01T06:35:29.580Z,97849.81
2022-09-01T06:37:58.720Z,97848.16
2022-09-01T06:40:42.785Z,97842.75
2022-09-01T06:43:16.219Z,97842.91
2022-09-01T06:45:49.781Z,97843.31
2022-09-01T06:48:18.624Z,97839.41
2022-09-01T06:53:35.738Z,97844.09
2022-09-01T06:56:10.162Z,97844.09
2022-09-01T06:58:48.296Z,97847.41
2022-09-01T07:01:21.286Z,97851.13
2022-09-01T07:03:53.426Z,97848.44
2022-09-01T07:09:38.833Z,97855.03
2022-09-01T07:12:25.943Z,97854.56
2022-09-01T07:17:55.583Z,97861.84
2022-09-01T07:20:29.385Z,97866.00
2022-09-01T07:23:07.073Z,97872.63
2022-09-01T07:26:00.979Z,97871.94
2022-09-01T07:28:37.926Z,97868.41
2022-09-01T07:39:50.617Z,97863.09
2022-09-01T07:49:28.706Z,97882.53
2022-09-01T07:51:50.214Z,97878.75
2022-09-01T07:54:23.815Z,97883.25
2022-09-01T07:56:54.431Z,97883.00
2022-09-01T07:59:23.431Z,97882.97
2022-09-01T08:01:58.035Z,97884.38
2022-09-01T08:04:26.732Z,97887.84
2022-09-01T08:06:57.590Z,97884.22
2022-09-01T08:09:32.786Z,97889.22
2022-09-01T08:12:08.337Z,97887.50
2022-09-01T08:14:44.191Z,97893.69
2022-09-01T08:20:08.429Z,97892.06
2022-09-01T08:23:18.376Z,97893.56
2022-09-01T08:25:48.595Z,97894.81
2022-09-01T08:28:26.287Z,97897.69
2022-09-01T08:30:56.341Z,97898.88
2022-09-01T08:33:26.447Z,97892.34
2022-09-01T08:35:55.439Z,97904.28
2022-09-01T08:38:24.012Z,97890.66
2022-09-01T08:40:57.836Z,97895.31
2022-09-01T08:44:01.829Z,97897.03
2022-09-01T08:46:39.950Z,97900.63
2022-09-01T08:49:29.521Z,97898.41
2022-09-01T08:52:33.052Z,97904.38
2022-09-01T08:55:27.420Z,97902.84
2022-09-01T08:57:59.877Z,97901.34
2022-09-01T09:00:37.069Z,97895.94
2022-09-01T09:03:41.483Z,97905.53
2022-09-01T09:06:24.756Z,97904.84
2022-09-01T09:08:55.412Z,97907.66
2022-09-01T09:11:48.441Z,97904.50
2022-09-01T09:14:47.515Z,97908.88
2022-09-01T09:17:22.400Z,97910.88
2022-09-01T09:19:50.181Z,97912.31
2022-09-01T09:22:21.186Z,97909.28
2022-09-01T09:25:03.182Z,97905.63
2022-09-01T09:27:40.912Z,97907.84
2022-09-01T09:30:19.330Z,97901.25
2022-09-01T09:33:46.591Z,97908.94
2022-09-01T09:35:48.561Z,97902.19
2022-09-01T09:38:29.416Z,97901.84
2022-09-01T09:41:18.788Z,97904.81
2022-09-01T09:44:23.140Z,97903.50
2022-09-01T09:46:51.787Z,97895.50
2022-09-01T09:49:41.422Z,97892.41
2022-09-01T09:52:16.409Z,97889.09
2022-09-01T09:55:30.616Z,97896.97
2022-09-01T09:58:01.717Z,97890.69
2022-09-01T10:00:34.597Z,97892.72
2022-09-01T10:03:13.103Z,97891.03
2022-09-01T10:05:51.962Z,97887.47
2022-09-01T10:08:37.144Z,97890.06
2022-09-01T10:11:08.123Z,97892.97
2022-09-01T10:13:36.843Z,97888.81
2022-09-01T10:16:42.600Z,97886.44
2022-09-01T10:19:16.366Z,97894.19
2022-09-01T10:21:46.149Z,97890.16
2022-09-01T10:24:33.568Z,97897.09
2022-09-01T10:27:14.333Z,97888.78
2022-09-01T10:30:18.753Z,97893.28
2022-09-01T10:32:55.277Z,97885.19
2022-09-01T10:35:34.376Z,97892.06
2022-09-01T10:38:16.127Z,97884.72
2022-09-01T10:41:07.327Z,97881.75
2022-09-01T10:43:45.406Z,97886.78
2022-09-01T10:46:26.576Z,97883.56
2022-09-01T10:49:03.476Z,97877.63
2022-09-01T10:51:50.566Z,97881.34
2022-09-01T10:54:50.841Z,97881.50
2022-09-01T10:57:31.065Z,97884.56
2022-09-01T11:00:39.839Z,97869.59
2022-09-01T11:06:17.509Z,97867.63
2022-09-01T11:08:58.373Z,97864.06
2022-09-01T11:11:35.881Z,97867.88
2022-09-01T11:14:06.835Z,97863.72
2022-09-01T11:16:48.043Z,97863.44
2022-09-01T11:19:37.928Z,97856.31
2022-09-01T11:22:26.877Z,97858.06
2022-09-01T11:25:40.963Z,97850.41
2022-09-01T11:28:18.153Z,97853.22
2022-09-01T11:31:06.867Z,97845.84
2022-09-01T11:34:11.251Z,97842.63
2022-09-01T11:36:47.243Z,97839.53
2022-09-01T11:39:21.072Z,97838.53
2022-09-01T11:42:06.839Z,97841.22
2022-09-01T11:45:21.558Z,97835.88
2022-09-01T11:47:57.300Z,97836.53
2022-09-01T11:50:30.655Z,97828.34
2022-09-01T11:53:13.967Z,97830.31
2022-09-01T11:55:46.056Z,97831.09
2022-09-01T11:58:39.320Z,97821.69
2022-09-01T12:01:19.263Z,97829.06
2022-09-01T12:03:50.042Z,97831.38
2022-09-01T12:06:27.916Z,97828.84
2022-09-01T12:09:02.342Z,97831.28
2022-09-01T12:11:34.181Z,97830.22
2022-09-01T12:14:11.784Z,97825.94
2022-09-01T12:16:42.636Z,97828.06
2022-09-01T12:19:25.867Z,97820.41
2022-09-01T12:22:15.444Z,97812.50
2022-09-01T12:24:51.131Z,97812.22
2022-09-01T12:27:20.093Z,97814.28
2022-09-01T12:29:47.981Z,97811.56
2022-09-01T12:32:16.885Z,97808.69
2022-09-01T12:35:11.571Z,97811.81
2022-09-01T12:37:39.701Z,97801.59
2022-09-01T12:40:30.970Z,97806.84
2022-09-01T12:42:58.780Z,97815.41
2022-09-01T12:45:46.652Z,97813.25
2022-09-01T12:48:29.003Z,97811.66
2022-09-01T12:51:24.546Z,97811.28
2022-09-01T12:53:58.876Z,97808.69
2022-09-01T12:56:32.844Z,97808.44
2022-09-01T12:59:37.599Z,97798.97
2022-09-01T13:02:35.148Z,97799.09
2022-09-01T13:05:40.957Z,97794.31
2022-09-01T13:08:16.383Z,97790.38
2022-09-01T13:10:53.433Z,97795.97
2022-09-01T13:13:24.295Z,97790.59
2022-09-01T13:15:57.647Z,97787.91
2022-09-01T13:18:26.602Z,97791.22
2022-09-01T13:20:56.008Z,97793.69
2022-09-01T13:23:24.392Z,97785.50
2022-09-01T13:25:53.019Z,97789.59
2022-09-01T13:36:46.971Z,97779.03
2022-09-01T13:39:20.450Z,97781.75
2022-09-01T13:41:49.415Z,97781.47
2022-09-01T13:44:18.686Z,97776.50
2022-09-01T13:50:04.665Z,97771.28
2022-09-01T13:52:23.734Z,97769.06
2022-09-01T13:54:51.575Z,97771.19
2022-09-01T13:57:19.422Z,97775.03
2022-09-01T13:59:47.176Z,97770.13
2022-09-01T14:02:14.960Z,97776.69
2022-09-01T14:04:42.804Z,97769.63
2022-09-01T14:07:10.676Z,97759.34
2022-09-01T14:09:38.424Z,97756.78
2022-09-01T14:12:06.404Z,97762.09
2022-09-01T14:17:23.235Z,97753.59
2022-09-01T14:19:51.444Z,97745.19
2022-09-01T14:22:19.262Z,97756.16
2022-09-01T14:24:47.287Z,97755.94
2022-09-01T14:27:15.262Z,97750.75
2022-09-01T14:32:09.975Z,97743.38
2022-09-01T14:34:37.758Z,97746.38
2022-09-01T14:37:05.645Z,97734.91
2022-09-01T14:39:33.871Z,97739.56
2022-09-01T14:42:01.712Z,97734.59
2022-09-01T14:44:29.464Z,97732.69
2022-09-01T14:46:57.804Z,97732.69
2022-09-01T14:49:26.091Z,97732.91
2022-09-01T14:52:11.496Z,97727.66
2022-09-01T14:54:42.520Z,97726.56
2022-09-01T14:59:59.803Z,97717.25
2022-09-01T15:02:29.266Z,97715.03
2022-09-01T15:04:57.108Z,97717.72
2022-09-01T15:07:24.995Z,97722.06
2022-09-01T15:09:52.901Z,97718.19
2022-09-01T15:12:20.738Z,97725.81
2022-09-01T15:14:48.941Z,97717.81
2022-09-01T15:17:17.215Z,97715.31
2022-09-01T15:19:44.996Z,97721.38
2022-09-01T15:22:13.610Z,97706.28
2022-09-01T15:24:41.390Z,97711.50
2022-09-01T15:27:11.384Z,97715.63
2022-09-01T15:29:46.111Z,97712.78
2022-09-01T15:32:20.530Z,97710.38
2022-09-01T15:34:56.485Z,97718.13
2022-09-01T15:37:24.363Z,97710.22
2022-09-01T15:39:53.248Z,97713.53
2022-09-01T15:42:21.937Z,97710.25
2022-09-01T15:44:49.956Z,97701.50
2022-09-01T15:47:17.811Z,97700.97
2022-09-01T15:49:45.634Z,97696.31
2022-09-01T15:52:13.459Z,97705.53
2022-09-01T15:54:41.259Z,97697.88
2022-09-01T15:57:09.199Z,97695.09
2022-09-01T15:59:40.105Z,97698.91
2022-09-01T16:02:10.374Z,97694.25
2022-09-01T16:04:39.252Z,97695.31
2022-09-01T16:07:07.048Z,97691.50
2022-09-01T16:09:36.907Z,97691.81
2022-09-01T16:12:06.429Z,97689.09
2022-09-01T16:14:34.323Z,97686.13
2022-09-01T16:17:47.320Z,97682.31
2022-09-01T16:20:24.765Z,97673.88
2022-09-01T16:23:08.179Z,97681.25
2022-09-01T16:25:35.985Z,97671.13
2022-09-01T16:28:13.538Z,97673.81
2022-09-01T16:30:41.477Z,97679.28
2022-09-01T16:33:19.941Z,97678.72
2022-09-01T16:35:59.912Z,97684.47
2022-09-01T16:38:54.422Z,97677.88
2022-09-01T16:41:45.347Z,97675.66
2022-09-01T16:45:05.421Z,97671.47
2022-09-01T16:47:54.720Z,97670.31
2022-09-01T16:50:40.967Z,97665.34
2022-09-01T16:53:18.139Z,97669.09
2022-09-01T16:56:10.004Z,97670.09
2022-09-01T16:58:59.074Z,97670.84
2022-09-01T17:01:48.512Z,97658.53
2022-09-01T17:04:33.249Z,97664.44
2022-09-01T17:07:29.641Z,97663.56
2022-09-01T17:10:37.153Z,97667.34
2022-09-01T17:13:40.131Z,97668.97
2022-09-01T17:16:23.156Z,97675.97
2022-09-01T17:19:04.859Z,97675.09
2022-09-01T17:21:46.117Z,97667.09
2022-09-01T17:24:29.138Z,97670.56
2022-09-01T17:27:08.551Z,97674.63
2022-09-01T17:29:44.964Z,97673.44
2022-09-01T17:33:01.103Z,97680.47
2022-09-01T17:36:25.217Z,97673.78
2022-09-01T17:39:11.764Z,97681.06
2022-09-01T17:42:00.458Z,97682.59
2022-09-01T17:44:43.224Z,97685.28
2022-09-01T17:47:21.480Z,97686.28
2022-09-01T17:50:38.743Z,97690.81
2022-09-01T17:53:23.307Z,97700.59
2022-09-01T17:56:11.098Z,97702.09
2022-09-01T17:58:41.560Z,97701.69
2022-09-01T18:01:54.249Z,97704.06
2022-09-01T18:04:42.839Z,97703.47
2022-09-01T18:08:16.796Z,97704.72
2022-09-01T18:10:58.163Z,97700.88
2022-09-01T18:14:12.632Z,97700.72
2022-09-01T18:17:20.717Z,97699.84
2022-09-01T18:20:01.734Z,97708.00
2022-09-01T18:22:44.675Z,97704.25
2022-09-01T18:25:24.064Z,97713.75
2022-09-01T18:27:51.864Z,97717.13
2022-09-01T18:30:42.525Z,97727.34
2022-09-01T18:33:36.175Z,97716.94
2022-09-01T18:36:31.875Z,97731.31
2022-09-01T18:39:36.090Z,97724.63
2022-09-01T18:42:36.691Z,97722.66
2022-09-01T18:45:37.847Z,97724.22
2022-09-01T18:48:33.464Z,97726.00
2022-09-01T18:51:15.211Z,97732.44
2022-09-01T18:53:56.654Z,97728.19
2022-09-01T18:56:52.159Z,97728.31
2022-09-01T18:59:49.688Z,97719.50
2022-09-01T19:02:47.938Z,97725.91
2022-09-01T19:06:39.826Z,97722.75
2022-09-01T19:09:14.531Z,97729.97
2022-09-01T19:12:24.048Z,97726.56
2022-09-01T19:14:54.574Z,97731.19
2022-09-01T19:17:46.425Z,97730.84
2022-09-01T19:20:27.770Z,97729.22
2022-09-01T19:23:04.582Z,97728.28
2022-09-01T19:25:38.823Z,97731.47
2022-09-01T19:28:47.069Z,97732.78
2022-09-01T19:31:29.058Z,97738.69
2022-09-01T19:34:06.422Z,97740.22
2022-09-01T19:36:40.107Z,97746.63
2022-09-01T19:39:17.264Z,97737.75
2022-09-01T19:42:35.541Z,97736.81
2022-09-01T19:45:14.385Z,97740.00
2022-09-01T19:48:21.108Z,97740.63
2022-09-01T19:51:13.485Z,97737.06
2022-09-01T19:54:24.652Z,97746.97
2022-09-01T19:57:33.134Z,97742.03
2022-09-01T20:00:20.308Z,97738.97
2022-09-01T20:03:07.722Z,97734.25
2022-09-01T20:09:17.230Z,97734.84
2022-09-01T20:12:32.326Z,97734.59
2022-09-01T20:15:20.945Z,97732.59
2022-09-01T20:18:27.046Z,97737.53
2022-09-01T20:20:58.337Z,97736.69
2022-09-01T20:24:09.312Z,97735.94
2022-09-01T20:26:52.755Z,97737.03
2022-09-01T20:30:03.940Z,97733.13
2022-09-01T20:32:43.048Z,97732.31
2022-09-01T20:35:20.792Z,97730.06
2022-09-01T20:37:56.629Z,97742.44
2022-09-01T20:40:35.793Z,97737.22
2022-09-01T20:43:22.609Z,97735.56
2022-09-01T20:45:51.017Z,97732.25
2022-09-01T20:48:25.510Z,97733.34
2022-09-01T20:51:18.522Z,97731.94
2022-09-01T20:54:23.033Z,97737.81
2022-09-01T20:57:35.864Z,97726.16
2022-09-01T21:00:35.303Z,97728.00
2022-09-01T21:03:41.292Z,97728.25
2022-09-01T21:06:24.389Z,97727.06
2022-09-01T21:09:24.259Z,97731.28
2022-09-01T21:12:06.789Z,97725.63
2022-09-01T21:14:43.308Z,97730.84
2022-09-01T21:17:22.740Z,97721.50
2022-09-01T21:20:22.070Z,97725.28
2022-09-01T21:22:55.632Z,97721.50
2022-09-01T21:25:24.355Z,97716.34
2022-09-01T21:27:58.721Z,97720.00
2022-09-01T21:30:30.408Z,97720.09
2022-09-01T21:32:59.171Z,97721.59
2022-09-01T21:35:27.112Z,97723.13
2022-09-01T21:37:55.328Z,97720.03
2022-09-01T21:40:25.427Z,97721.81
2022-09-01T21:43:07.453Z,97728.72
2022-09-01T21:45:38.030Z,97727.16
2022-09-01T21:48:06.602Z,97726.22
2022-09-01T21:50:34.390Z,97727.09
2022-09-01T21:53:02.254Z,97717.78
2022-09-01T21:55:31.591Z,97719.88
2022-09-01T21:57:59.723Z,97724.72
2022-09-01T22:00:31.700Z,97720.38
2022-09-01T22:03:01.767Z,97723.50
2022-09-01T22:05:31.123Z,97721.88
2022-09-01T22:07:59.087Z,97719.16
2022-09-01T22:10:29.716Z,97722.91
2022-09-01T22:13:03.633Z,97723.72
2022-09-01T22:15:31.908Z,97721.03
2022-09-01T22:17:59.691Z,97717.94
2022-09-01T22:20:29.210Z,97716.09
2022-09-01T22:23:01.830Z,97717.34
2022-09-01T22:25:32.643Z,97708.41
2022-09-01T22:28:04.001Z,97713.44
2022-09-01T22:30:32.412Z,97713.66
2022-09-01T22:33:01.628Z,97708.50
2022-09-01T22:35:29.803Z,97710.38
2022-09-01T22:37:57.577Z,97703.31
2022-09-01T22:40:25.385Z,97705.44
2022-09-01T22:42:53.205Z,97707.53
2022-09-01T22:45:21.150Z,97706.69
2022-09-01T22:47:49.491Z,97706.94
2022-09-01T22:50:18.373Z,97711.16
2022-09-01T22:52:46.162Z,97709.47
2022-09-01T22:55:13.912Z,97712.63
2022-09-01T22:57:41.895Z,97708.50
2022-09-01T23:00:10.940Z,97707.91
2022-09-01T23:02:39.026Z,97701.69
2022-09-01T23:05:08.311Z,97705.41
2022-09-01T23:07:39.750Z,97706.50
2022-09-01T23:10:09.126Z,97711.53
2022-09-01T23:12:37.010Z,97703.25
2022-09-01T23:15:05.668Z,97706.16
2022-09-01T23:17:33.489Z,97702.66
2022-09-01T23:20:02.348Z,97698.31
2022-09-01T23:22:30.163Z,97696.03
2022-09-01T23:24:58.009Z,97694.41
2022-09-01T23:27:25.857Z,97694.63
2022-09-01T23:29:53.638Z,97695.06
2022-09-01T23:32:21.434Z,97697.16
2022-09-01T23:34:49.577Z,97690.34
2022-09-01T23:37:17.424Z,97689.50
2022-09-01T23:39:45.297Z,97697.00
2022-09-01T23:42:13.125Z,97690.56
2022-09-01T23:44:40.895Z,97689.72
2022-09-01T23:47:08.757Z,97691.25
2022-09-01T23:49:36.561Z,97686.22
2022-09-01T23:52:04.401Z,97690.44
2022-09-01T23:54:32.344Z,97684.22
2022-09-01T23:57:00.785Z,97681.72
2022-09-01T23:59:29.001Z,97675.72
